sensor_id;sensor_type;location;lat;lon;timestamp;pressure;altitude;pressure_sealevel;temperature;humidity
45888;BME280;31595;51.418;7.572;2022-07-29T00:01:14;100284.41;;;21.52;42.56
45888;BME280;31595;51.418;7.572;2022-07-29T00:03:42;100275.91;;;21.52;42.61
45888;BME280;31595;51.418;7.572;2022-07-29T00:06:10;100282.81;;;21.51;42.96
45888;BME280;31595;51.418;7.572;2022-07-29T00:08:38;100277.56;;;21.53;42.82
45888;BME280;31595;51.418;7.572;2022-07-29T00:11:05;100273.06;;;21.52;42.61
45888;BME280;31595;51.418;7.572;2022-07-29T00:13:32;100273.03;;;21.48;42.67
45888;BME280;31595;51.418;7.572;2022-07-29T00:16:00;100265.75;;;21.47;42.82
45888;BME280;31595;51.418;7.572;2022-07-29T00:18:28;100265.72;;;21.43;42.84
45888;BME280;31595;51.418;7.572;2022-07-29T00:20:56;100265.28;;;21.41;42.73
45888;BME280;31595;51.418;7.572;2022-07-29T00:23:24;100264.44;;;21.37;42.85
45888;BME280;31595;51.418;7.572;2022-07-29T00:25:52;100256.75;;;21.34;43.11
45888;BME280;31595;51.418;7.572;2022-07-29T00:28:19;100259.56;;;21.34;43.38
45888;BME280;31595;51.418;7.572;2022-07-29T00:30:50;100257.91;;;21.29;43.60
45888;BME280;31595;51.418;7.572;2022-07-29T00:33:17;100251.00;;;21.27;43.83
45888;BME280;31595;51.418;7.572;2022-07-29T00:35:44;100239.66;;;21.27;43.57
45888;BME280;31595;51.418;7.572;2022-07-29T00:38:12;100244.91;;;21.21;43.63
45888;BME280;31595;51.418;7.572;2022-07-29T00:40:41;100238.44;;;21.21;43.65
45888;BME280;31595;51.418;7.572;2022-07-29T00:43:09;100237.16;;;21.15;43.63
45888;BME280;31595;51.418;7.572;2022-07-29T00:45:37;100235.91;;;21.12;43.77
45888;BME280;31595;51.418;7.572;2022-07-29T00:48:05;100232.66;;;21.06;43.89
45888;BME280;31595;51.418;7.572;2022-07-29T00:50:36;100231.38;;;21.04;43.92
45888;BME280;31595;51.418;7.572;2022-07-29T00:53:04;100228.13;;;20.98;43.97
45888;BME280;31595;51.418;7.572;2022-07-29T00:55:32;100230.13;;;20.94;43.96
45888;BME280;31595;51.418;7.572;2022-07-29T00:58:01;100224.44;;;20.94;44.10
45888;BME280;31595;51.418;7.572;2022-07-29T01:00:29;100227.25;;;20.91;44.25
45888;BME280;31595;51.418;7.572;2022-07-29T01:02:56;100221.97;;;20.89;44.48
45888;BME280;31595;51.418;7.572;2022-07-29T01:05:26;100217.88;;;20.83;44.54
45888;BME280;31595;51.418;7.572;2022-07-29T01:07:57;100219.84;;;20.79;44.78
45888;BME280;31595;51.418;7.572;2022-07-29T01:10:26;100211.72;;;20.74;45.00
45888;BME280;31595;51.418;7.572;2022-07-29T01:12:57;100217.78;;;20.72;45.06
45888;BME280;31595;51.418;7.572;2022-07-29T01:15:27;100207.66;;;20.71;45.10
45888;BME280;31595;51.418;7.572;2022-07-29T01:18:00;100201.16;;;20.67;45.23
45888;BME280;31595;51.418;7.572;2022-07-29T01:20:39;100201.53;;;20.65;45.17
45888;BME280;31595;51.418;7.572;2022-07-29T01:23:32;100201.91;;;20.60;45.48
45888;BME280;31595;51.418;7.572;2022-07-29T01:26:31;100197.78;;;20.54;45.75
45888;BME280;31595;51.418;7.572;2022-07-29T01:29:05;100200.94;;;20.49;46.21
45888;BME280;31595;51.418;7.572;2022-07-29T01:31:39;100202.53;;;20.46;45.53
45888;BME280;31595;51.418;7.572;2022-07-29T01:34:11;100194.00;;;20.43;46.11
45888;BME280;31595;51.418;7.572;2022-07-29T01:36:45;100201.63;;;20.39;46.51
45888;BME280;31595;51.418;7.572;2022-07-29T01:39:26;100192.72;;;20.37;47.38
45888;BME280;31595;51.418;7.572;2022-07-29T01:41:58;100187.06;;;20.33;48.05
45888;BME280;31595;51.418;7.572;2022-07-29T01:44:34;100180.50;;;20.25;48.39
45888;BME280;31595;51.418;7.572;2022-07-29T01:47:08;100188.13;;;20.21;48.57
45888;BME280;31595;51.418;7.572;2022-07-29T01:49:45;100190.06;;;20.14;48.56
45888;BME280;31595;51.418;7.572;2022-07-29T01:52:18;100186.00;;;20.11;48.55
45888;BME280;31595;51.418;7.572;2022-07-29T01:54:53;100189.19;;;20.06;49.00
45888;BME280;31595;51.418;7.572;2022-07-29T01:57:27;100191.53;;;20.00;50.14
45888;BME280;31595;51.418;7.572;2022-07-29T02:00:00;100184.16;;;19.92;50.83
45888;BME280;31595;51.418;7.572;2022-07-29T02:02:30;100180.00;;;19.82;50.91
45888;BME280;31595;51.418;7.572;2022-07-29T02:05:00;100184.81;;;19.78;51.23
45888;BME280;31595;51.418;7.572;2022-07-29T02:07:31;100170.25;;;19.76;51.48
45888;BME280;31595;51.418;7.572;2022-07-29T02:10:01;100179.03;;;19.71;51.75
45888;BME280;31595;51.418;7.572;2022-07-29T02:12:32;100181.31;;;19.62;51.71
45888;BME280;31595;51.418;7.572;2022-07-29T02:15:03;100176.44;;;19.59;51.91
45888;BME280;31595;51.418;7.572;2022-07-29T02:17:34;100177.63;;;19.58;52.09
45888;BME280;31595;51.418;7.572;2022-07-29T02:20:08;100168.31;;;19.54;51.93
45888;BME280;31595;51.418;7.572;2022-07-29T02:22:39;100169.78;;;19.44;52.33
45888;BME280;31595;51.418;7.572;2022-07-29T02:25:08;100159.34;;;19.48;52.56
45888;BME280;31595;51.418;7.572;2022-07-29T02:27:37;100154.09;;;19.46;52.32
45888;BME280;31595;51.418;7.572;2022-07-29T02:30:08;100152.81;;;19.44;52.21
45888;BME280;31595;51.418;7.572;2022-07-29T02:32:39;100164.97;;;19.44;52.19
45888;BME280;31595;51.418;7.572;2022-07-29T02:35:13;100158.88;;;19.42;52.22
45888;BME280;31595;51.418;7.572;2022-07-29T02:37:43;100174.13;;;19.38;53.04
45888;BME280;31595;51.418;7.572;2022-07-29T02:40:32;100161.53;;;19.32;52.80
45888;BME280;31595;51.418;7.572;2022-07-29T02:43:01;100155.78;;;19.24;53.12
45888;BME280;31595;51.418;7.572;2022-07-29T02:45:31;100160.06;;;19.15;53.41
45888;BME280;31595;51.418;7.572;2022-07-29T02:48:05;100153.25;;;19.16;53.38
45888;BME280;31595;51.418;7.572;2022-07-29T02:50:36;100161.78;;;19.19;53.23
45888;BME280;31595;51.418;7.572;2022-07-29T02:53:08;100152.47;;;19.19;52.89
45888;BME280;31595;51.418;7.572;2022-07-29T02:55:43;100152.91;;;19.21;52.67
45888;BME280;31595;51.418;7.572;2022-07-29T02:58:15;100152.47;;;19.19;52.89
45888;BME280;31595;51.418;7.572;2022-07-29T03:00:53;100145.94;;;19.15;53.13
45888;BME280;31595;51.418;7.572;2022-07-29T03:03:20;100157.22;;;19.11;53.28
45888;BME280;31595;51.418;7.572;2022-07-29T03:05:49;100158.41;;;19.10;53.41
45888;BME280;31595;51.418;7.572;2022-07-29T03:08:16;100154.34;;;19.08;53.61
45888;BME280;31595;51.418;7.572;2022-07-29T03:10:44;100166.81;;;19.06;53.54
45888;BME280;31595;51.418;7.572;2022-07-29T03:13:14;100161.59;;;19.09;53.86
45888;BME280;31595;51.418;7.572;2022-07-29T03:15:43;100164.41;;;19.09;54.06
45888;BME280;31595;51.418;7.572;2022-07-29T03:18:13;100155.19;;;19.12;54.26
45888;BME280;31595;51.418;7.572;2022-07-29T03:20:41;100159.53;;;19.05;54.38
45888;BME280;31595;51.418;7.572;2022-07-29T03:23:09;100147.03;;;19.06;54.83
45888;BME280;31595;51.418;7.572;2022-07-29T03:25:37;100149.13;;;19.10;54.23
45888;BME280;31595;51.418;7.572;2022-07-29T03:28:04;100150.34;;;19.12;54.12
45888;BME280;31595;51.418;7.572;2022-07-29T03:30:31;100139.44;;;19.11;54.38
45888;BME280;31595;51.418;7.572;2022-07-29T03:32:59;100136.31;;;19.16;54.10
45888;BME280;31595;51.418;7.572;2022-07-29T03:35:28;100140.38;;;19.18;53.97
45888;BME280;31595;51.418;7.572;2022-07-29T03:37:57;100138.78;;;19.21;54.29
45888;BME280;31595;51.418;7.572;2022-07-29T03:40:28;100141.19;;;19.19;54.22
45888;BME280;31595;51.418;7.572;2022-07-29T03:42:58;100138.34;;;19.19;54.35
45888;BME280;31595;51.418;7.572;2022-07-29T03:45:27;100133.91;;;19.18;54.29
45888;BME280;31595;51.418;7.572;2022-07-29T03:47:59;100133.09;;;19.17;54.32
45888;BME280;31595;51.418;7.572;2022-07-29T03:50:30;100135.53;;;19.19;54.85
45888;BME280;31595;51.418;7.572;2022-07-29T03:52:58;100127.50;;;19.21;54.73
45888;BME280;31595;51.418;7.572;2022-07-29T03:55:26;100121.84;;;19.21;54.89
45888;BME280;31595;51.418;7.572;2022-07-29T03:57:55;100124.66;;;19.21;54.57
45888;BME280;31595;51.418;7.572;2022-07-29T04:00:24;100132.28;;;19.17;54.13
45888;BME280;31595;51.418;7.572;2022-07-29T04:02:52;100130.66;;;19.16;53.93
45888;BME280;31595;51.418;7.572;2022-07-29T04:05:20;100129.84;;;19.15;54.28
45888;BME280;31595;51.418;7.572;2022-07-29T04:07:48;100126.63;;;19.17;54.02
45888;BME280;31595;51.418;7.572;2022-07-29T04:10:16;100127.91;;;19.19;54.06
45888;BME280;31595;51.418;7.572;2022-07-29T04:12:44;100131.97;;;19.22;53.95
45888;BME280;31595;51.418;7.572;2022-07-29T04:15:12;100135.59;;;19.22;54.59
45888;BME280;31595;51.418;7.572;2022-07-29T04:17:39;100136.03;;;19.24;55.02
45888;BME280;31595;51.418;7.572;2022-07-29T04:20:07;100131.97;;;19.25;55.08
45888;BME280;31595;51.418;7.572;2022-07-29T04:22:35;100132.81;;;19.26;55.00
45888;BME280;31595;51.418;7.572;2022-07-29T04:25:04;100138.25;;;19.12;55.61
45888;BME280;31595;51.418;7.572;2022-07-29T04:27:31;100133.41;;;19.12;55.90
45888;BME280;31595;51.418;7.572;2022-07-29T04:29:58;100142.00;;;19.19;56.12
45888;BME280;31595;51.418;7.572;2022-07-29T04:32:26;100144.00;;;19.19;56.25
45888;BME280;31595;51.418;7.572;2022-07-29T04:34:53;100147.25;;;19.21;56.19
45888;BME280;31595;51.418;7.572;2022-07-29T04:37:20;100158.84;;;19.12;56.15
45888;BME280;31595;51.418;7.572;2022-07-29T04:39:48;100173.00;;;19.16;56.46
45888;BME280;31595;51.418;7.572;2022-07-29T04:42:16;100175.50;;;19.21;56.68
45888;BME280;31595;51.418;7.572;2022-07-29T04:44:43;100184.81;;;19.21;55.72
45888;BME280;31595;51.418;7.572;2022-07-29T04:47:11;100192.88;;;19.23;54.87
45888;BME280;31595;51.418;7.572;2022-07-29T04:49:38;100191.28;;;19.25;54.93
45888;BME280;31595;51.418;7.572;2022-07-29T04:52:06;100189.41;;;19.33;54.72
45888;BME280;31595;51.418;7.572;2022-07-29T04:54:33;100200.38;;;19.38;53.90
45888;BME280;31595;51.418;7.572;2022-07-29T04:57:00;100204.44;;;19.41;53.78
45888;BME280;31595;51.418;7.572;2022-07-29T04:59:29;100212.19;;;19.47;53.99
45888;BME280;31595;51.418;7.572;2022-07-29T05:01:56;100215.09;;;19.51;53.30
45888;BME280;31595;51.418;7.572;2022-07-29T05:04:23;100214.38;;;19.58;53.75
45888;BME280;31595;51.418;7.572;2022-07-29T05:06:51;100217.28;;;19.65;52.95
45888;BME280;31595;51.418;7.572;2022-07-29T05:09:18;100217.00;;;19.70;52.28
45888;BME280;31595;51.418;7.572;2022-07-29T05:11:45;100206.22;;;19.79;51.61
45888;BME280;31595;51.418;7.572;2022-07-29T05:14:13;100212.28;;;19.81;50.97
45888;BME280;31595;51.418;7.572;2022-07-29T05:16:41;100224.88;;;19.87;50.46
45888;BME280;31595;51.418;7.572;2022-07-29T05:19:09;100218.13;;;19.96;49.51
45888;BME280;31595;51.418;7.572;2022-07-29T05:21:36;100213.75;;;20.02;49.04
45888;BME280;31595;51.418;7.572;2022-07-29T05:24:04;100224.88;;;19.87;49.12
45888;BME280;31595;51.418;7.572;2022-07-29T05:26:31;100221.63;;;19.85;49.64
45888;BME280;31595;51.418;7.572;2022-07-29T05:28:58;100209.91;;;19.83;49.44
45888;BME280;31595;51.418;7.572;2022-07-29T05:31:26;100214.88;;;19.94;48.71
45888;BME280;31595;51.418;7.572;2022-07-29T05:33:54;100237.56;;;20.01;48.85
45888;BME280;31595;51.418;7.572;2022-07-29T05:36:25;100233.25;;;20.11;48.58
45888;BME280;31595;51.418;7.572;2022-07-29T05:38:53;100225.00;;;20.28;48.40
45888;BME280;31595;51.418;7.572;2022-07-29T05:41:21;100233.19;;;20.41;47.35
45888;BME280;31595;51.418;7.572;2022-07-29T05:43:48;100247.69;;;20.36;48.15
45888;BME280;31595;51.418;7.572;2022-07-29T05:46:15;100247.56;;;20.25;47.70
45888;BME280;31595;51.418;7.572;2022-07-29T05:48:42;100253.84;;;20.45;46.97
45888;BME280;31595;51.418;7.572;2022-07-29T05:51:11;100259.31;;;20.61;47.08
45888;BME280;31595;51.418;7.572;2022-07-29T05:53:38;100259.78;;;20.66;46.99
45888;BME280;31595;51.418;7.572;2022-07-29T05:56:06;100264.75;;;20.80;46.83
45888;BME280;31595;51.418;7.572;2022-07-29T05:58:34;100260.31;;;20.83;46.78
45888;BME280;31595;51.418;7.572;2022-07-29T06:01:02;100263.91;;;20.76;46.35
45888;BME280;31595;51.418;7.572;2022-07-29T06:03:29;100269.00;;;20.60;46.81
45888;BME280;31595;51.418;7.572;2022-07-29T06:05:57;100282.09;;;20.75;46.48
45888;BME280;31595;51.418;7.572;2022-07-29T06:08:26;100277.25;;;20.76;46.29
45888;BME280;31595;51.418;7.572;2022-07-29T06:10:53;100274.47;;;20.83;45.95
45888;BME280;31595;51.418;7.572;2022-07-29T06:13:20;100277.81;;;20.92;46.07
45888;BME280;31595;51.418;7.572;2022-07-29T06:15:48;100275.03;;;20.99;45.99
45888;BME280;31595;51.418;7.572;2022-07-29T06:18:15;100268.91;;;20.90;46.16
45888;BME280;31595;51.418;7.572;2022-07-29T06:20:42;100264.47;;;20.93;46.04
45888;BME280;31595;51.418;7.572;2022-07-29T06:23:10;100258.00;;;20.92;45.88
45888;BME280;31595;51.418;7.572;2022-07-29T06:25:39;100260.03;;;20.95;46.21
45888;BME280;31595;51.418;7.572;2022-07-29T06:28:06;100271.84;;;21.01;45.75
45888;BME280;31595;51.418;7.572;2022-07-29T06:30:34;100264.56;;;21.00;45.62
45888;BME280;31595;51.418;7.572;2022-07-29T06:33:01;100271.53;;;21.13;45.78
45888;BME280;31595;51.418;7.572;2022-07-29T06:35:29;100263.47;;;21.15;45.36
45888;BME280;31595;51.418;7.572;2022-07-29T06:37:56;100252.81;;;20.98;45.79
45888;BME280;31595;51.418;7.572;2022-07-29T06:40:23;100257.72;;;21.04;46.03
45888;BME280;31595;51.418;7.572;2022-07-29T06:43:09;100266.16;;;21.01;45.49
45888;BME280;31595;51.418;7.572;2022-07-29T06:45:37;100263.13;;;21.24;45.47
45888;BME280;31595;51.418;7.572;2022-07-29T06:48:06;100262.41;;;21.34;45.02
45888;BME280;31595;51.418;7.572;2022-07-29T06:50:34;100259.72;;;21.48;45.08
45888;BME280;31595;51.418;7.572;2022-07-29T06:53:01;100263.88;;;21.69;44.48
45888;BME280;31595;51.418;7.572;2022-07-29T06:55:28;100258.69;;;21.85;44.01
45888;BME280;31595;51.418;7.572;2022-07-29T06:57:56;100255.56;;;22.01;43.35
45888;BME280;31595;51.418;7.572;2022-07-29T07:00:24;100262.09;;;22.16;42.81
45888;BME280;31595;51.418;7.572;2022-07-29T07:02:52;100260.09;;;22.20;43.04
45888;BME280;31595;51.418;7.572;2022-07-29T07:05:19;100262.19;;;22.38;43.25
45888;BME280;31595;51.418;7.572;2022-07-29T07:07:48;100261.47;;;22.62;42.70
45888;BME280;31595;51.418;7.572;2022-07-29T07:10:16;100264.31;;;22.73;41.72
45888;BME280;31595;51.418;7.572;2022-07-29T07:12:43;100258.25;;;22.85;41.64
45888;BME280;31595;51.418;7.572;2022-07-29T07:15:10;100259.91;;;22.94;41.22
45888;BME280;31595;51.418;7.572;2022-07-29T07:17:39;100262.34;;;23.20;41.07
45888;BME280;31595;51.418;7.572;2022-07-29T07:20:07;100253.41;;;23.50;40.76
45888;BME280;31595;51.418;7.572;2022-07-29T07:22:35;100251.75;;;23.71;39.84
45888;BME280;31595;51.418;7.572;2022-07-29T07:25:02;100257.38;;;24.00;39.78
45888;BME280;31595;51.418;7.572;2022-07-29T07:27:30;100245.53;;;24.19;39.16
45888;BME280;31595;51.418;7.572;2022-07-29T07:29:57;100253.09;;;24.44;38.56
45888;BME280;31595;51.418;7.572;2022-07-29T07:32:24;100261.66;;;24.44;38.52
45888;BME280;31595;51.418;7.572;2022-07-29T07:34:53;100260.50;;;24.30;38.92
45888;BME280;31595;51.418;7.572;2022-07-29T07:37:20;100264.44;;;24.65;38.28
45888;BME280;31595;51.418;7.572;2022-07-29T07:39:47;100255.25;;;24.96;37.99
45888;BME280;31595;51.418;7.572;2022-07-29T07:42:15;100249.97;;;25.43;36.78
45888;BME280;31595;51.418;7.572;2022-07-29T07:44:42;100241.00;;;25.86;35.95
45888;BME280;31595;51.418;7.572;2022-07-29T07:47:11;100246.81;;;26.13;36.25
45888;BME280;31595;51.418;7.572;2022-07-29T07:49:39;100253.38;;;26.41;35.39
45888;BME280;31595;51.418;7.572;2022-07-29T07:52:07;100264.38;;;26.42;34.66
45888;BME280;31595;51.418;7.572;2022-07-29T07:54:34;100250.06;;;26.46;34.86
45888;BME280;31595;51.418;7.572;2022-07-29T07:57:02;100250.63;;;26.33;35.30
45888;BME280;31595;51.418;7.572;2022-07-29T07:59:29;100260.19;;;26.50;34.68
45888;BME280;31595;51.418;7.572;2022-07-29T08:01:56;100251.00;;;26.66;34.51
45888;BME280;31595;51.418;7.572;2022-07-29T08:04:24;100255.03;;;26.96;34.30
45888;BME280;31595;51.418;7.572;2022-07-29T08:06:51;100248.03;;;27.28;34.15
45888;BME280;31595;51.418;7.572;2022-07-29T08:09:21;100254.06;;;27.77;33.38
45888;BME280;31595;51.418;7.572;2022-07-29T08:11:48;100247.66;;;28.33;32.21
45888;BME280;31595;51.418;7.572;2022-07-29T08:14:16;100253.63;;;28.39;32.15
45888;BME280;31595;51.418;7.572;2022-07-29T08:16:43;100251.75;;;28.52;31.28
45888;BME280;31595;51.418;7.572;2022-07-29T08:19:10;100253.50;;;28.46;31.37
45888;BME280;31595;51.418;7.572;2022-07-29T08:21:38;100251.63;;;28.76;31.60
45888;BME280;31595;51.418;7.572;2022-07-29T08:24:06;100245.41;;;29.30;30.40
45888;BME280;31595;51.418;7.572;2022-07-29T08:26:53;100250.06;;;29.86;30.00
45888;BME280;31595;51.418;7.572;2022-07-29T08:29:20;100261.94;;;30.01;29.69
45888;BME280;31595;51.418;7.572;2022-07-29T08:31:47;100248.94;;;30.25;29.74
45888;BME280;31595;51.418;7.572;2022-07-29T08:34:14;100250.53;;;30.55;29.02
45888;BME280;31595;51.418;7.572;2022-07-29T08:36:42;100246.63;;;30.88;28.29
45888;BME280;31595;51.418;7.572;2022-07-29T08:39:09;100253.19;;;30.88;28.61
45888;BME280;31595;51.418;7.572;2022-07-29T08:41:37;100254.00;;;30.89;28.63
45888;BME280;31595;51.418;7.572;2022-07-29T08:44:05;100249.59;;;30.71;27.87
45888;BME280;31595;51.418;7.572;2022-07-29T08:46:32;100246.22;;;30.34;28.69
45888;BME280;31595;51.418;7.572;2022-07-29T08:49:01;100253.34;;;30.43;29.24
45888;BME280;31595;51.418;7.572;2022-07-29T08:51:28;100246.09;;;30.38;28.96
45888;BME280;31595;51.418;7.572;2022-07-29T08:53:57;100247.16;;;30.57;28.44
45888;BME280;31595;51.418;7.572;2022-07-29T08:56:25;100247.31;;;30.66;28.42
45888;BME280;31595;51.418;7.572;2022-07-29T08:58:53;100244.97;;;30.61;27.59
45888;BME280;31595;51.418;7.572;2022-07-29T09:01:24;100241.56;;;30.66;27.63
45888;BME280;31595;51.418;7.572;2022-07-29T09:03:54;100234.53;;;30.80;28.13
45888;BME280;31595;51.418;7.572;2022-07-29T09:06:23;100237.28;;;30.84;27.23
45888;BME280;31595;51.418;7.572;2022-07-29T09:08:54;100236.34;;;30.61;28.12
45888;BME280;31595;51.418;7.572;2022-07-29T09:11:25;100228.78;;;30.67;27.98
45888;BME280;31595;51.418;7.572;2022-07-29T09:13:52;100232.22;;;31.13;26.99
45888;BME280;31595;51.418;7.572;2022-07-29T09:16:20;100232.03;;;31.55;26.94
45888;BME280;31595;51.418;7.572;2022-07-29T09:18:48;100225.69;;;31.61;26.81
45888;BME280;31595;51.418;7.572;2022-07-29T09:21:17;100231.34;;;31.86;26.84
45888;BME280;31595;51.418;7.572;2022-07-29T09:24:05;100231.00;;;31.84;26.61
45888;BME280;31595;51.418;7.572;2022-07-29T09:26:34;100231.34;;;31.86;26.98
45888;BME280;31595;51.418;7.572;2022-07-29T09:29:08;100234.69;;;31.85;26.73
45888;BME280;31595;51.418;7.572;2022-07-29T09:31:37;100231.91;;;31.81;26.94
45888;BME280;31595;51.418;7.572;2022-07-29T09:34:08;100233.22;;;32.02;26.69
45888;BME280;31595;51.418;7.572;2022-07-29T09:36:42;100229.63;;;32.11;26.72
45888;BME280;31595;51.418;7.572;2022-07-29T09:39:10;100234.72;;;33.41;25.59
45888;BME280;31595;51.418;7.572;2022-07-29T09:41:47;100231.72;;;34.70;24.28
45888;BME280;31595;51.418;7.572;2022-07-29T09:44:15;100231.69;;;35.61;22.90
45888;BME280;31595;51.418;7.572;2022-07-29T09:46:56;100229.25;;;35.69;22.76
45888;BME280;31595;51.418;7.572;2022-07-29T09:49:25;100232.38;;;35.56;22.71
45888;BME280;31595;51.418;7.572;2022-07-29T09:52:00;100229.00;;;35.00;22.40
45888;BME280;31595;51.418;7.572;2022-07-29T09:54:27;100228.91;;;34.43;22.78
45888;BME280;31595;51.418;7.572;2022-07-29T09:57:00;100231.81;;;34.06;23.33
45888;BME280;31595;51.418;7.572;2022-07-29T09:59:27;100235.22;;;33.67;24.64
45888;BME280;31595;51.418;7.572;2022-07-29T10:01:55;100238.16;;;33.08;24.50
45888;BME280;31595;51.418;7.572;2022-07-29T10:04:22;100222.72;;;33.02;25.13
45888;BME280;31595;51.418;7.572;2022-07-29T10:06:58;100222.25;;;32.63;25.01
45888;BME280;31595;51.418;7.572;2022-07-29T10:09:26;100226.59;;;32.14;25.82
45888;BME280;31595;51.418;7.572;2022-07-29T10:12:07;100223.34;;;32.03;26.29
45888;BME280;31595;51.418;7.572;2022-07-29T10:14:37;100221.06;;;31.85;26.85
45888;BME280;31595;51.418;7.572;2022-07-29T10:17:05;100217.13;;;31.70;26.39
45888;BME280;31595;51.418;7.572;2022-07-29T10:19:34;100223.25;;;31.11;26.76
45888;BME280;31595;51.418;7.572;2022-07-29T10:22:05;100225.22;;;30.89;28.08
45888;BME280;31595;51.418;7.572;2022-07-29T10:24:32;100228.44;;;30.78;29.25
45888;BME280;31595;51.418;7.572;2022-07-29T10:27:02;100226.13;;;30.60;29.89
45888;BME280;31595;51.418;7.572;2022-07-29T10:29:29;100214.16;;;30.36;30.87
45888;BME280;31595;51.418;7.572;2022-07-29T10:32:10;100217.03;;;30.07;31.54
45888;BME280;31595;51.418;7.572;2022-07-29T10:34:52;100232.03;;;29.69;32.22
45888;BME280;31595;51.418;7.572;2022-07-29T10:37:42;100221.38;;;29.24;32.79
45888;BME280;31595;51.418;7.572;2022-07-29T10:40:17;100219.47;;;28.84;33.52
45888;BME280;31595;51.418;7.572;2022-07-29T10:43:16;100228.28;;;28.57;33.62
45888;BME280;31595;51.418;7.572;2022-07-29T10:45:45;100227.09;;;28.18;34.23
45888;BME280;31595;51.418;7.572;2022-07-29T10:48:14;100228.63;;;28.03;34.54
45888;BME280;31595;51.418;7.572;2022-07-29T10:50:57;100231.91;;;27.81;35.07
45888;BME280;31595;51.418;7.572;2022-07-29T10:53:48;100235.47;;;27.65;35.64
45888;BME280;31595;51.418;7.572;2022-07-29T10:56:25;100231.78;;;27.45;35.60
45888;BME280;31595;51.418;7.572;2022-07-29T10:59:22;100236.66;;;27.24;36.25
45888;BME280;31595;51.418;7.572;2022-07-29T11:01:51;100237.91;;;27.20;36.04
45888;BME280;31595;51.418;7.572;2022-07-29T11:05:01;100246.59;;;27.12;36.28
45888;BME280;31595;51.418;7.572;2022-07-29T11:07:30;100239.16;;;27.19;36.17
45888;BME280;31595;51.418;7.572;2022-07-29T11:10:20;100246.00;;;27.48;35.67
45888;BME280;31595;51.418;7.572;2022-07-29T11:12:48;100244.50;;;27.64;36.00
45888;BME280;31595;51.418;7.572;2022-07-29T11:15:18;100241.66;;;27.84;35.83
45888;BME280;31595;51.418;7.572;2022-07-29T11:18:08;100241.91;;;28.13;34.98
45888;BME280;31595;51.418;7.572;2022-07-29T11:20:38;100240.94;;;28.40;34.73
45888;BME280;31595;51.418;7.572;2022-07-29T11:23:20;100230.53;;;28.66;33.95
45888;BME280;31595;51.418;7.572;2022-07-29T11:26:15;100233.03;;;29.17;33.31
45888;BME280;31595;51.418;7.572;2022-07-29T11:28:51;100224.00;;;29.80;33.19
45888;BME280;31595;51.418;7.572;2022-07-29T11:31:31;100226.50;;;30.62;31.83
45888;BME280;31595;51.418;7.572;2022-07-29T11:34:18;100233.25;;;31.20;30.41
45888;BME280;31595;51.418;7.572;2022-07-29T11:37:22;100234.44;;;31.57;29.87
45888;BME280;31595;51.418;7.572;2022-07-29T11:40:14;100227.75;;;32.80;28.79
45888;BME280;31595;51.418;7.572;2022-07-29T11:42:45;100226.03;;;33.41;27.30
45888;BME280;31595;51.418;7.572;2022-07-29T11:45:14;100225.44;;;33.65;26.87
45888;BME280;31595;51.418;7.572;2022-07-29T11:47:49;100211.75;;;34.21;26.58
45888;BME280;31595;51.418;7.572;2022-07-29T11:50:18;100224.78;;;34.25;26.27
45888;BME280;31595;51.418;7.572;2022-07-29T11:52:53;100229.50;;;34.56;25.91
45888;BME280;31595;51.418;7.572;2022-07-29T11:55:22;100220.47;;;34.63;26.09
45888;BME280;31595;51.418;7.572;2022-07-29T11:57:52;100218.13;;;34.43;26.01
45888;BME280;31595;51.418;7.572;2022-07-29T12:00:22;100226.84;;;34.34;26.43
45888;BME280;31595;51.418;7.572;2022-07-29T12:02:50;100215.75;;;34.32;26.57
45888;BME280;31595;51.418;7.572;2022-07-29T12:05:18;100214.00;;;34.26;27.22
45888;BME280;31595;51.418;7.572;2022-07-29T12:07:47;100213.53;;;34.00;26.73
45888;BME280;31595;51.418;7.572;2022-07-29T12:10:15;100214.03;;;33.98;26.83
45888;BME280;31595;51.418;7.572;2022-07-29T12:12:42;100220.28;;;33.41;27.47
45888;BME280;31595;51.418;7.572;2022-07-29T12:15:15;100218.53;;;33.03;28.02
45888;BME280;31595;51.418;7.572;2022-07-29T12:17:47;100217.19;;;32.76;28.33
45888;BME280;31595;51.418;7.572;2022-07-29T12:20:22;100211.34;;;32.58;28.47
45888;BME280;31595;51.418;7.572;2022-07-29T12:22:50;100214.97;;;32.27;28.34
45888;BME280;31595;51.418;7.572;2022-07-29T12:25:20;100213.81;;;32.15;28.42
45888;BME280;31595;51.418;7.572;2022-07-29T12:27:57;100216.50;;;32.10;28.57
45888;BME280;31595;51.418;7.572;2022-07-29T12:30:35;100219.78;;;31.99;28.75
45888;BME280;31595;51.418;7.572;2022-07-29T12:33:13;100228.13;;;31.84;29.25
45888;BME280;31595;51.418;7.572;2022-07-29T12:35:42;100219.72;;;31.42;29.28
45888;BME280;31595;51.418;7.572;2022-07-29T12:38:11;100223.25;;;31.11;30.09
45888;BME280;31595;51.418;7.572;2022-07-29T12:40:39;100222.56;;;30.82;30.84
45888;BME280;31595;51.418;7.572;2022-07-29T12:43:08;100223.34;;;30.44;31.39
45888;BME280;31595;51.418;7.572;2022-07-29T12:45:38;100222.00;;;30.19;31.71
45888;BME280;31595;51.418;7.572;2022-07-29T12:48:06;100227.22;;;29.82;32.04
45888;BME280;31595;51.418;7.572;2022-07-29T12:50:36;100215.03;;;29.78;32.25
45888;BME280;31595;51.418;7.572;2022-07-29T12:53:11;100220.50;;;29.72;32.29
45888;BME280;31595;51.418;7.572;2022-07-29T12:55:43;100220.50;;;29.56;32.82
45888;BME280;31595;51.418;7.572;2022-07-29T12:58:25;100222.94;;;29.74;32.21
45888;BME280;31595;51.418;7.572;2022-07-29T13:01:06;100219.34;;;29.53;32.85
45888;BME280;31595;51.418;7.572;2022-07-29T13:03:44;100222.63;;;29.23;33.10
45888;BME280;31595;51.418;7.572;2022-07-29T13:06:32;100225.84;;;29.08;33.79
45888;BME280;31595;51.418;7.572;2022-07-29T13:09:01;100223.47;;;28.54;34.36